Time;durP1;ratioP1;P1;durP2;ratioP2;P2;SDS_P1;SDS_P2;PMS_P1;PMS_P2;Temp;Humidity;BMP_temperature;BMP_pressure;BME280_temperature;BME280_humidity;BME280_pressure;Samples;Min_cycle;Max_cycle;Signal;HPM_P1;HPM_P2
2023/05/22 00:01:45;;;;;;;16.30;14.90;;;;;;;;;;5014839;28;20452;-76
2023/05/22 00:04:40;;;;;;;16.63;15.13;;;;;;;;;;5014135;28;20506;-75
2023/05/22 00:07:16;;;;;;;17.03;15.30;;;;;;;;;;5013975;28;20953;-76
2023/05/22 00:09:48;;;;;;;16.33;14.93;;;;;;;;;;5014057;28;20999;-76
2023/05/22 00:12:24;;;;;;;17.30;15.87;;;;;;;;;;5014830;28;20439;-76
2023/05/22 00:14:59;;;;;;;16.53;15.03;;;;;;;;;;5017989;28;20463;-76
2023/05/22 00:17:38;;;;;;;17.53;15.93;;;;;;;;;;5017956;28;20451;-76
2023/05/22 00:20:09;;;;;;;15.90;14.50;;;;;;;;;;5018659;28;20463;-75
2023/05/22 00:22:41;;;;;;;17.67;16.07;;;;;;;;;;5026500;28;20435;-75
2023/05/22 00:25:11;;;;;;;17.40;15.90;;;;;;;;;;5030305;28;20482;-75
2023/05/22 00:27:46;;;;;;;17.60;16.00;;;;;;;;;;5032769;28;20447;-75
2023/05/22 00:30:23;;;;;;;16.73;15.30;;;;;;;;;;5030938;28;20483;-75
2023/05/22 00:32:51;;;;;;;17.37;15.77;;;;;;;;;;5029340;28;20447;-75
2023/05/22 00:35:21;;;;;;;17.17;15.57;;;;;;;;;;5033094;28;20427;-75
2023/05/22 00:37:48;;;;;;;17.43;15.93;;;;;;;;;;5032826;28;20443;-76
2023/05/22 00:40:20;;;;;;;18.03;16.33;;;;;;;;;;5031950;28;20483;-76
2023/05/22 00:42:49;;;;;;;17.77;16.20;;;;;;;;;;5031319;28;20459;-76
2023/05/22 00:45:18;;;;;;;16.63;15.13;;;;;;;;;;5032364;28;20458;-74
2023/05/22 00:47:49;;;;;;;17.17;15.77;;;;;;;;;;5031588;28;20522;-76
2023/05/22 00:50:21;;;;;;;16.33;14.93;;;;;;;;;;5029029;28;20479;-75
2023/05/22 00:52:52;;;;;;;17.10;15.70;;;;;;;;;;5029878;28;20446;-75
2023/05/22 00:55:26;;;;;;;17.60;15.97;;;;;;;;;;5024770;28;20455;-76
2023/05/22 00:58:06;;;;;;;17.47;15.87;;;;;;;;;;5019000;28;20452;-76
2023/05/22 01:00:36;;;;;;;17.60;15.97;;;;;;;;;;5013993;28;20586;-75
2023/05/22 01:03:06;;;;;;;16.57;14.97;;;;;;;;;;5012922;28;20473;-75
2023/05/22 01:05:34;;;;;;;16.80;15.43;;;;;;;;;;5012948;28;20443;-75
2023/05/22 01:08:02;;;;;;;18.77;17.13;;;;;;;;;;5013229;28;20470;-76
2023/05/22 01:10:31;;;;;;;18.70;17.00;;;;;;;;;;5012724;28;21035;-76
2023/05/22 01:13:10;;;;;;;19.03;17.23;;;;;;;;;;5013401;28;20456;-77
2023/05/22 01:15:44;;;;;;;18.50;16.77;;;;;;;;;;5014962;28;20455;-77
2023/05/22 01:18:18;;;;;;;18.37;16.67;;;;;;;;;;5015325;28;20459;-76
2023/05/22 01:20:56;;;;;;;17.87;16.27;;;;;;;;;;5014436;28;20529;-75
2023/05/22 01:23:46;;;;;;;18.30;16.70;;;;;;;;;;5014697;28;20531;-76
2023/05/22 01:26:29;;;;;;;19.13;17.17;;;;;;;;;;5015106;28;20592;-76
2023/05/22 01:29:19;;;;;;;19.80;17.97;;;;;;;;;;5013302;28;21139;-76
2023/05/22 01:32:01;;;;;;;;;;;;;;;;;;;;;
2023/05/22 01:34:40;;;;;;;18.90;17.20;;;;;;;;;;5019842;28;20451;-75
2023/05/22 01:37:18;;;;;;;19.10;17.20;;;;;;;;;;5018898;28;20456;-75
2023/05/22 01:40:05;;;;;;;18.63;16.93;;;;;;;;;;5013841;28;21050;-76
2023/05/22 01:42:52;;;;;;;17.80;16.27;;;;;;;;;;5017606;28;20550;-76
2023/05/22 01:51:22;;;;;;;18.57;16.67;;;;;;;;;;5019746;28;20463;-75
2023/05/22 01:53:53;;;;;;;19.80;17.90;;;;;;;;;;5022051;28;20445;-76
2023/05/22 01:56:29;;;;;;;20.83;18.93;;;;;;;;;;5021701;28;20455;-76
2023/05/22 01:59:05;;;;;;;19.70;17.80;;;;;;;;;;5027841;28;20491;-75
2023/05/22 02:01:56;;;;;;;20.50;18.50;;;;;;;;;;5028376;28;20505;-75
2023/05/22 02:04:40;;;;;;;20.43;18.23;;;;;;;;;;5021062;28;20566;-76
2023/05/22 02:07:25;;;;;;;19.70;17.90;;;;;;;;;;5023102;28;20451;-77
2023/05/22 02:10:01;;;;;;;18.73;16.93;;;;;;;;;;5024317;28;20505;-76
2023/05/22 02:12:34;;;;;;;19.30;17.70;;;;;;;;;;5025484;28;20446;-74
2023/05/22 02:15:13;;;;;;;19.83;18.03;;;;;;;;;;5025464;28;20447;-76
2023/05/22 02:17:54;;;;;;;;;;;;;;;;;;;;;
2023/05/22 02:20:44;;;;;;;19.83;18.13;;;;;;;;;;5022648;28;20451;-75
2023/05/22 02:23:19;;;;;;;19.97;18.07;;;;;;;;;;5024174;28;20471;-76
2023/05/22 02:25:52;;;;;;;20.07;18.27;;;;;;;;;;5025382;28;20450;-76
2023/05/22 02:28:21;;;;;;;19.93;17.93;;;;;;;;;;5025988;28;20550;-76
2023/05/22 02:31:04;;;;;;;19.00;17.30;;;;;;;;;;5027099;28;20471;-76
2023/05/22 02:33:33;;;;;;;19.80;18.00;;;;;;;;;;5029088;28;20482;-76
2023/05/22 02:36:09;;;;;;;19.83;17.87;;;;;;;;;;5031375;28;20439;-76
2023/05/22 02:38:39;;;;;;;19.40;17.60;;;;;;;;;;5030584;28;20447;-76
2023/05/22 02:41:13;;;;;;;22.30;18.17;;;;;;;;;;5030213;28;20467;-76
2023/05/22 02:46:47;;;;;;;20.10;18.30;;;;;;;;;;5028124;28;20435;-76
2023/05/22 02:52:23;;;;;;;20.43;18.50;;;;;;;;;;5026270;28;20459;-75
2023/05/22 02:54:54;;;;;;;19.57;17.57;;;;;;;;;;5026709;28;20451;-76
2023/05/22 02:57:26;;;;;;;19.87;17.90;;;;;;;;;;5022596;28;20455;-75
2023/05/22 03:00:05;;;;;;;20.40;18.30;;;;;;;;;;5023192;28;20447;-76
2023/05/22 03:02:36;;;;;;;19.43;17.63;;;;;;;;;;5022721;28;20478;-76
2023/05/22 03:05:08;;;;;;;19.50;17.60;;;;;;;;;;5022705;28;20485;-75
2023/05/22 03:07:41;;;;;;;20.50;18.50;;;;;;;;;;5023331;28;21012;-77
2023/05/22 03:10:13;;;;;;;20.90;18.87;;;;;;;;;;5025179;28;20545;-75
2023/05/22 03:12:56;;;;;;;20.40;18.60;;;;;;;;;;5022142;28;20432;-76
2023/05/22 03:15:25;;;;;;;19.23;17.53;;;;;;;;;;5021467;28;20459;-76
2023/05/22 03:23:37;;;;;;;19.10;17.20;;;;;;;;;;5017607;28;20478;-76
2023/05/22 03:26:06;;;;;;;21.93;19.87;;;;;;;;;;5019750;28;20960;-76
2023/05/22 03:28:38;;;;;;;20.53;18.63;;;;;;;;;;5022894;28;20635;-76
2023/05/22 03:31:12;;;;;;;19.80;18.07;;;;;;;;;;5022837;28;20479;-76
2023/05/22 03:33:49;;;;;;;19.67;17.50;;;;;;;;;;5022052;28;20530;-75
2023/05/22 03:36:24;;;;;;;20.33;17.90;;;;;;;;;;5022432;28;20443;-76
2023/05/22 03:39:01;;;;;;;19.27;17.47;;;;;;;;;;5024431;28;20459;-77
2023/05/22 03:44:50;;;;;;;19.97;18.17;;;;;;;;;;5019448;28;20478;-76
2023/05/22 04:11:41;;;;;;;21.60;19.60;;;;;;;;;;4881122;29;20704;-77
2023/05/22 04:23:06;;;;;;;19.27;17.37;;;;;;;;;;4956301;29;20425;-77
2023/05/22 04:28:55;;;;;;;20.10;18.10;;;;;;;;;;4950531;29;20462;-76
2023/05/22 04:31:54;;;;;;;20.13;18.23;;;;;;;;;;4947847;29;20540;-78
2023/05/22 04:41:04;;;;;;;21.47;19.23;;;;;;;;;;4940501;29;20470;-78
2023/05/22 04:43:38;;;;;;;19.90;17.80;;;;;;;;;;4970375;28;20472;-77
2023/05/22 04:46:09;;;;;;;21.33;19.33;;;;;;;;;;5000995;28;20510;-77
2023/05/22 04:51:24;;;;;;;23.30;19.00;;;;;;;;;;4998464;28;20479;-76
2023/05/22 04:53:57;;;;;;;19.43;17.73;;;;;;;;;;4996994;28;20460;-76
2023/05/22 04:56:29;;;;;;;20.63;18.63;;;;;;;;;;4997876;28;20516;-77
2023/05/22 04:59:00;;;;;;;20.73;18.77;;;;;;;;;;4997432;28;20456;-74
2023/05/22 05:01:29;;;;;;;19.97;18.17;;;;;;;;;;4996480;28;20483;-76
2023/05/22 05:03:56;;;;;;;21.30;19.10;;;;;;;;;;5000138;28;20480;-77
2023/05/22 05:06:25;;;;;;;19.63;17.73;;;;;;;;;;4999407;28;20452;-76
2023/05/22 05:08:52;;;;;;;21.83;17.97;;;;;;;;;;5001197;28;20476;-76
2023/05/22 05:11:21;;;;;;;22.10;19.90;;;;;;;;;;5000141;28;20492;-76
2023/05/22 05:13:51;;;;;;;20.33;18.50;;;;;;;;;;4999780;28;20575;-76
2023/05/22 05:16:19;;;;;;;21.43;19.40;;;;;;;;;;5002726;28;20507;-77
2023/05/22 05:18:47;;;;;;;20.40;18.60;;;;;;;;;;5003827;28;20456;-75
2023/05/22 05:21:16;;;;;;;21.57;18.30;;;;;;;;;;5019509;28;20498;-75
2023/05/22 05:23:43;;;;;;;19.97;18.00;;;;;;;;;;5021315;28;20455;-76
2023/05/22 05:26:22;;;;;;;21.47;19.17;;;;;;;;;;5025336;28;20459;-77
2023/05/22 05:28:53;;;;;;;53.50;47.90;;;;;;;;;;5024238;28;20451;-80
2023/05/22 05:31:41;;;;;;;23.47;21.27;;;;;;;;;;5020841;28;20550;-75
2023/05/22 05:34:10;;;;;;;22.23;19.13;;;;;;;;;;5022785;28;20451;-77
2023/05/22 05:36:39;;;;;;;24.93;19.37;;;;;;;;;;5022674;28;20459;-75
2023/05/22 05:39:12;;;;;;;23.37;21.07;;;;;;;;;;5022398;28;20467;-76
2023/05/22 05:41:48;;;;;;;22.13;19.87;;;;;;;;;;5022241;28;20454;-76
2023/05/22 05:44:22;;;;;;;22.47;19.80;;;;;;;;;;5020648;28;20431;-76
2023/05/22 05:47:06;;;;;;;;;;;;;;;;;;;;;
2023/05/22 05:49:38;;;;;;;23.10;18.20;;;;;;;;;;5018584;28;20459;-75
2023/05/22 05:52:16;;;;;;;21.20;19.20;;;;;;;;;;5019183;28;20450;-77
2023/05/22 05:57:35;;;;;;;22.63;20.30;;;;;;;;;;5019013;28;20427;-77
2023/05/22 06:00:27;;;;;;;22.23;20.00;;;;;;;;;;5020142;28;20551;-76
2023/05/22 06:03:01;;;;;;;20.90;18.90;;;;;;;;;;5013198;28;20487;-76
2023/05/22 06:05:30;;;;;;;20.00;18.10;;;;;;;;;;5018406;28;20529;-76
2023/05/22 06:07:58;;;;;;;20.40;18.30;;;;;;;;;;5017692;28;20526;-76
2023/05/22 06:10:28;;;;;;;22.13;20.03;;;;;;;;;;5017810;28;20479;-77
2023/05/22 06:12:57;;;;;;;20.27;18.33;;;;;;;;;;5018500;28;20604;-75
2023/05/22 06:15:32;;;;;;;20.17;18.40;;;;;;;;;;5019793;28;20538;-76
2023/05/22 06:18:09;;;;;;;20.10;17.57;;;;;;;;;;5020365;28;20585;-77
2023/05/22 06:23:41;;;;;;;20.03;18.00;;;;;;;;;;5017752;28;20450;-77
2023/05/22 06:26:20;;;;;;;20.00;18.20;;;;;;;;;;5018962;28;20447;-77
2023/05/22 06:28:53;;;;;;;20.83;18.77;;;;;;;;;;5018913;28;20448;-77
2023/05/22 06:31:24;;;;;;;19.60;17.53;;;;;;;;;;5017915;28;20487;-77
2023/05/22 06:37:03;;;;;;;20.27;18.33;;;;;;;;;;5018323;28;20407;-76
2023/05/22 06:42:28;;;;;;;19.80;17.90;;;;;;;;;;4987651;28;20423;-77
2023/05/22 06:44:57;;;;;;;19.97;18.13;;;;;;;;;;5019967;28;20883;-76
2023/05/22 06:47:28;;;;;;;20.87;18.90;;;;;;;;;;5020115;28;20444;-77
2023/05/22 06:50:06;;;;;;;19.77;17.70;;;;;;;;;;5019496;28;21014;-76
2023/05/22 06:52:38;;;;;;;20.17;18.00;;;;;;;;;;5019018;28;20608;-76
2023/05/22 06:55:08;;;;;;;19.37;17.37;;;;;;;;;;5019123;28;20460;-76
2023/05/22 07:00:39;;;;;;;18.47;16.70;;;;;;;;;;5016965;28;20538;-77
2023/05/22 07:03:10;;;;;;;19.50;17.70;;;;;;;;;;5019510;28;20957;-77
2023/05/22 07:05:56;;;;;;;19.03;17.27;;;;;;;;;;5018462;28;20462;-77
2023/05/22 07:08:25;;;;;;;17.30;15.70;;;;;;;;;;5020313;28;20559;-76
2023/05/22 07:13:49;;;;;;;20.80;17.40;;;;;;;;;;5005033;28;21042;-76
2023/05/22 07:16:35;;;;;;;18.97;17.07;;;;;;;;;;5017726;28;20448;-78
2023/05/22 07:19:18;;;;;;;18.50;16.70;;;;;;;;;;4976893;28;20521;-76
2023/05/22 07:21:51;;;;;;;18.20;16.40;;;;;;;;;;5017832;28;20464;-77
2023/05/22 07:24:23;;;;;;;19.80;18.00;;;;;;;;;;5015817;28;20614;-77
2023/05/22 07:26:59;;;;;;;19.03;17.40;;;;;;;;;;5017487;28;20462;-76
2023/05/22 07:29:58;;;;;;;;;;;;;;;;;;;;;
2023/05/22 07:32:35;;;;;;;18.23;16.30;;;;;;;;;;5017263;28;20488;-76
2023/05/22 07:35:18;;;;;;;19.60;17.60;;;;;;;;;;5017662;28;20447;-75
2023/05/22 07:37:54;;;;;;;17.90;16.20;;;;;;;;;;5016955;28;20864;-77
2023/05/22 07:40:29;;;;;;;19.03;17.40;;;;;;;;;;5018130;28;20493;-78
2023/05/22 07:43:01;;;;;;;18.97;17.00;;;;;;;;;;5018687;28;20497;-79
2023/05/22 07:45:35;;;;;;;17.43;15.83;;;;;;;;;;5021191;28;20494;-76
2023/05/22 07:48:07;;;;;;;18.30;16.50;;;;;;;;;;5022910;28;20470;-77
2023/05/22 07:50:46;;;;;;;17.50;15.90;;;;;;;;;;5020326;28;20622;-77
2023/05/22 07:56:13;;;;;;;19.63;17.90;;;;;;;;;;4999862;28;20440;-75
2023/05/22 07:58:42;;;;;;;17.60;15.80;;;;;;;;;;5020860;28;20479;-75
2023/05/22 08:01:11;;;;;;;17.23;15.43;;;;;;;;;;5022995;28;20459;-75
2023/05/22 08:03:40;;;;;;;18.30;16.60;;;;;;;;;;5021571;28;20479;-78
2023/05/22 08:06:12;;;;;;;18.50;16.83;;;;;;;;;;5020310;28;20452;-78
2023/05/22 08:08:44;;;;;;;17.73;16.13;;;;;;;;;;5019793;28;20459;-77
2023/05/22 08:11:25;;;;;;;17.07;15.53;;;;;;;;;;5020422;28;21011;-77
2023/05/22 08:13:54;;;;;;;15.77;14.30;;;;;;;;;;5019846;28;20526;-78
2023/05/22 08:16:22;;;;;;;15.77;14.33;;;;;;;;;;5019520;28;20993;-77
2023/05/22 08:18:52;;;;;;;14.63;13.30;;;;;;;;;;5016831;28;20878;-76
2023/05/22 08:21:20;;;;;;;14.03;12.80;;;;;;;;;;5016734;28;20478;-76
2023/05/22 08:23:53;;;;;;;14.67;13.33;;;;;;;;;;5015716;28;20463;-75
2023/05/22 08:26:59;;;;;;;14.07;12.47;;;;;;;;;;5014718;28;20513;-77
2023/05/22 08:29:31;;;;;;;14.80;13.30;;;;;;;;;;5011759;28;20483;-76
2023/05/22 08:32:00;;;;;;;13.50;12.40;;;;;;;;;;5015748;28;20869;-77
2023/05/22 08:34:36;;;;;;;14.47;13.07;;;;;;;;;;5016253;28;20482;-76
2023/05/22 08:43:05;;;;;;;14.47;13.27;;;;;;;;;;4982991;28;20455;-77
2023/05/22 08:45:41;;;;;;;15.10;13.83;;;;;;;;;;5018300;28;20446;-76
2023/05/22 08:48:17;;;;;;;14.70;13.20;;;;;;;;;;5015184;28;20879;-76
2023/05/22 08:50:56;;;;;;;14.50;12.97;;;;;;;;;;5014682;28;20474;-76
2023/05/22 08:53:27;;;;;;;14.87;13.67;;;;;;;;;;5013592;28;20468;-78
2023/05/22 08:56:01;;;;;;;16.40;14.80;;;;;;;;;;5013935;28;20554;-77
2023/05/22 08:58:34;;;;;;;14.77;13.40;;;;;;;;;;5014063;28;20456;-77
2023/05/22 09:01:09;;;;;;;14.97;13.33;;;;;;;;;;5022850;28;20471;-77
2023/05/22 09:03:44;;;;;;;15.10;13.70;;;;;;;;;;5030376;28;20447;-76
2023/05/22 09:06:19;;;;;;;15.57;14.07;;;;;;;;;;5030971;28;20427;-77
2023/05/22 09:09:02;;;;;;;12.80;11.50;;;;;;;;;;5029579;28;20458;-76
2023/05/22 09:11:34;;;;;;;12.57;11.53;;;;;;;;;;5028805;28;20506;-80
2023/05/22 09:14:27;;;;;;;13.80;12.40;;;;;;;;;;5027083;28;20486;-78
2023/05/22 09:17:20;;;;;;;14.37;12.97;;;;;;;;;;4997510;28;20470;-77
2023/05/22 09:19:53;;;;;;;14.80;13.50;;;;;;;;;;5029101;28;20447;-75
2023/05/22 09:22:43;;;;;;;13.47;12.07;;;;;;;;;;5029887;28;20546;-76
2023/05/22 09:25:22;;;;;;;14.47;13.00;;;;;;;;;;5028589;28;20436;-77
2023/05/22 09:27:57;;;;;;;15.40;12.97;;;;;;;;;;4988998;28;20835;-78
2023/05/22 09:42:14;;;;;;;13.23;12.20;;;;;;;;;;5030570;28;20435;-79
2023/05/22 09:47:49;;;;;;;13.17;12.07;;;;;;;;;;5034084;28;20478;-77
2023/05/22 09:50:55;;;;;;;13.70;12.47;;;;;;;;;;5034669;28;20486;-75
2023/05/22 09:53:35;;;;;;;13.40;12.10;;;;;;;;;;5032639;28;20442;-77
2023/05/22 09:56:07;;;;;;;13.70;12.60;;;;;;;;;;5032249;28;20479;-79
2023/05/22 09:58:36;;;;;;;14.03;12.97;;;;;;;;;;5029965;28;20443;-76
2023/05/22 10:01:09;;;;;;;13.37;12.17;;;;;;;;;;5032621;28;20490;-77
2023/05/22 10:03:39;;;;;;;14.20;13.13;;;;;;;;;;5034070;28;20499;-75
2023/05/22 10:06:12;;;;;;;14.97;13.47;;;;;;;;;;5030380;28;20447;-77
2023/05/22 10:14:52;;;;;;;13.57;12.37;;;;;;;;;;4991829;28;20507;-78
2023/05/22 10:17:30;;;;;;;15.53;14.13;;;;;;;;;;5025614;28;20471;-78
2023/05/22 10:20:15;;;;;;;13.20;12.10;;;;;;;;;;5026151;28;20478;-77
2023/05/22 10:22:47;;;;;;;13.50;12.20;;;;;;;;;;5033322;28;20458;-77
2023/05/22 10:25:24;;;;;;;15.60;14.33;;;;;;;;;;5024824;28;20448;-76
2023/05/22 10:28:13;;;;;;;14.30;13.17;;;;;;;;;;5024699;28;20447;-77
2023/05/22 10:33:45;;;;;;;13.77;12.57;;;;;;;;;;5028513;28;20543;-77
2023/05/22 10:36:41;;;;;;;13.10;12.10;;;;;;;;;;5028992;28;20443;-76
2023/05/22 10:39:42;;;;;;;;;;;;;;;;;;;;;
2023/05/22 10:45:15;;;;;;;13.03;11.50;;;;;;;;;;5030267;28;20446;-77
2023/05/22 10:51:10;;;;;;;15.40;13.90;;;;;;;;;;5026369;28;20451;-76
2023/05/22 10:53:48;;;;;;;14.10;12.83;;;;;;;;;;5026256;28;20443;-77
2023/05/22 10:56:34;;;;;;;13.40;12.40;;;;;;;;;;5025548;28;20459;-77
2023/05/22 10:59:15;;;;;;;13.70;12.60;;;;;;;;;;5031580;28;20599;-76
2023/05/22 11:11:29;;;;;;;13.07;12.00;;;;;;;;;;4929580;28;20459;-75
2023/05/22 11:20:30;;;;;;;;;;;;;;;;;;;;;
2023/05/22 11:23:38;;;;;;;13.90;12.60;;;;;;;;;;5020493;28;20446;-78
2023/05/22 11:29:43;;;;;;;12.50;11.50;;;;;;;;;;4986548;28;20959;-75
2023/05/22 11:35:54;;;;;;;11.97;10.97;;;;;;;;;;5024981;28;20426;-76
2023/05/22 11:41:54;;;;;;;12.33;11.23;;;;;;;;;;5009401;28;20923;-78
2023/05/22 11:47:34;;;;;;;11.50;10.73;;;;;;;;;;5011597;28;20876;-76
2023/05/22 11:50:20;;;;;;;11.00;10.20;;;;;;;;;;4974420;28;20472;-75
2023/05/22 11:56:07;;;;;;;12.03;11.13;;;;;;;;;;4896226;29;20417;-76
2023/05/22 11:58:41;;;;;;;12.63;11.30;;;;;;;;;;4894265;29;20881;-77
2023/05/22 12:10:25;;;;;;;12.47;11.57;;;;;;;;;;4954075;29;20474;-76
2023/05/22 12:18:44;;;;;;;11.80;10.90;;;;;;;;;;5011710;28;20444;-76
2023/05/22 12:21:16;;;;;;;11.40;10.50;;;;;;;;;;5014642;28;20538;-76
2023/05/22 12:24:07;;;;;;;12.00;11.00;;;;;;;;;;5018451;28;20967;-77
2023/05/22 12:26:47;;;;;;;11.07;10.10;;;;;;;;;;5027667;28;20457;-76
2023/05/22 12:32:12;;;;;;;11.83;10.63;;;;;;;;;;5012839;28;20475;-76
2023/05/22 12:35:17;;;;;;;12.30;11.13;;;;;;;;;;5019568;28;20451;-77
2023/05/22 12:37:55;;;;;;;11.40;10.50;;;;;;;;;;5022188;28;20534;-77
2023/05/22 12:40:30;;;;;;;11.60;10.70;;;;;;;;;;5020751;28;20614;-76
2023/05/22 12:43:10;;;;;;;13.57;11.23;;;;;;;;;;5018598;28;20447;-77
2023/05/22 12:48:46;;;;;;;11.10;10.30;;;;;;;;;;4969002;28;20467;-76
2023/05/22 12:51:30;;;;;;;12.17;10.20;;;;;;;;;;5016367;28;20475;-76
2023/05/22 12:54:00;;;;;;;10.97;9.87;;;;;;;;;;5016683;28;20475;-76
2023/05/22 12:56:36;;;;;;;11.83;10.90;;;;;;;;;;5019967;28;20459;-75
2023/05/22 12:59:12;;;;;;;11.00;10.10;;;;;;;;;;5020937;28;20466;-77
2023/05/22 13:01:56;;;;;;;11.00;10.20;;;;;;;;;;5015765;28;20447;-77
2023/05/22 13:04:25;;;;;;;11.03;10.13;;;;;;;;;;5016317;28;20479;-76
2023/05/22 13:06:59;;;;;;;10.97;10.23;;;;;;;;;;5015703;28;20542;-77
2023/05/22 13:09:31;;;;;;;12.33;10.20;;;;;;;;;;5016801;28;20483;-76
2023/05/22 13:12:17;;;;;;;11.37;10.57;;;;;;;;;;5017803;28;20455;-76
2023/05/22 13:14:46;;;;;;;11.90;11.00;;;;;;;;;;5017884;28;20771;-77
2023/05/22 13:17:16;;;;;;;10.90;10.00;;;;;;;;;;5018296;28;20555;-77
2023/05/22 13:22:33;;;;;;;10.80;9.90;;;;;;;;;;5016374;28;20447;-75
2023/05/22 13:25:02;;;;;;;11.10;10.00;;;;;;;;;;5018664;28;20835;-78
2023/05/22 13:27:44;;;;;;;11.20;10.40;;;;;;;;;;5018589;28;20582;-77
2023/05/22 13:33:02;;;;;;;9.93;9.20;;;;;;;;;;5017969;28;20491;-77
2023/05/22 13:35:38;;;;;;;9.90;9.10;;;;;;;;;;5018349;28;20451;-76
2023/05/22 13:38:11;;;;;;;9.93;9.23;;;;;;;;;;5019343;28;20470;-77
2023/05/22 13:40:46;;;;;;;10.80;9.83;;;;;;;;;;5018372;28;20472;-77
2023/05/22 13:43:27;;;;;;;11.27;10.47;;;;;;;;;;5018204;28;20470;-76
2023/05/22 13:46:20;;;;;;;;;;;;;;;;;;;;;
2023/05/22 13:48:54;;;;;;;10.10;9.20;;;;;;;;;;5013040;28;20448;-76
2023/05/22 13:51:25;;;;;;;9.67;8.97;;;;;;;;;;5023202;28;20645;-76
2023/05/22 13:53:57;;;;;;;9.07;8.37;;;;;;;;;;5019727;28;20540;-76
2023/05/22 13:56:34;;;;;;;9.70;8.90;;;;;;;;;;5022711;28;20431;-76
2023/05/22 14:02:10;;;;;;;10.53;9.73;;;;;;;;;;5018416;28;20521;-76
2023/05/22 14:05:02;;;;;;;;;;;;;;;;;;;;;
2023/05/22 14:07:37;;;;;;;10.20;9.43;;;;;;;;;;5022043;28;21008;-76
2023/05/22 14:10:17;;;;;;;8.67;8.00;;;;;;;;;;5022134;28;20478;-76
2023/05/22 14:12:48;;;;;;;9.73;9.03;;;;;;;;;;5022895;28;20483;-76
2023/05/22 14:15:39;;;;;;;10.07;9.33;;;;;;;;;;5021821;28;20481;-76
2023/05/22 14:18:08;;;;;;;8.20;7.60;;;;;;;;;;5020276;28;20455;-77
2023/05/22 14:20:36;;;;;;;9.57;8.77;;;;;;;;;;5022107;28;20466;-76
2023/05/22 14:23:08;;;;;;;8.63;7.80;;;;;;;;;;5022038;28;20532;-75
2023/05/22 14:25:41;;;;;;;8.53;7.93;;;;;;;;;;5021853;28;20530;-77
2023/05/22 14:28:13;;;;;;;8.80;8.10;;;;;;;;;;5021613;28;20467;-75
2023/05/22 14:30:42;;;;;;;8.53;7.93;;;;;;;;;;5021328;28;20547;-78
2023/05/22 14:33:13;;;;;;;9.67;8.97;;;;;;;;;;5019650;28;20562;-75
2023/05/22 14:35:49;;;;;;;10.03;9.33;;;;;;;;;;5021379;28;20466;-75
2023/05/22 14:38:23;;;;;;;9.90;9.17;;;;;;;;;;5023288;28;20857;-76
2023/05/22 14:40:55;;;;;;;9.90;9.03;;;;;;;;;;5021615;28;20983;-77
2023/05/22 14:46:07;;;;;;;10.43;9.60;;;;;;;;;;5023594;28;20458;-77
2023/05/22 14:49:01;;;;;;;10.30;9.47;;;;;;;;;;5020527;28;20510;-77
2023/05/22 14:52:08;;;;;;;;;;;;;;;;;;;;;
2023/05/22 14:54:45;;;;;;;10.53;9.53;;;;;;;;;;5024896;28;20460;-76
2023/05/22 14:57:18;;;;;;;11.10;10.30;;;;;;;;;;5023060;28;20482;-77
2023/05/22 15:02:44;;;;;;;11.70;10.70;;;;;;;;;;5019612;28;20482;-77
2023/05/22 15:05:12;;;;;;;11.90;10.90;;;;;;;;;;5021043;28;20455;-77
2023/05/22 15:07:59;;;;;;;12.20;11.20;;;;;;;;;;5020652;28;20921;-77
2023/05/22 15:10:37;;;;;;;11.07;10.27;;;;;;;;;;5019000;28;20463;-76
2023/05/22 15:13:14;;;;;;;10.03;8.87;;;;;;;;;;5018211;28;20450;-77
2023/05/22 15:15:51;;;;;;;9.00;8.30;;;;;;;;;;5019432;28;20431;-76
2023/05/22 15:18:38;;;;;;;9.93;9.13;;;;;;;;;;5018787;28;20447;-76
2023/05/22 15:21:16;;;;;;;9.47;8.67;;;;;;;;;;5018405;28;20642;-77
2023/05/22 15:23:47;;;;;;;9.53;8.73;;;;;;;;;;5017909;28;20540;-77
2023/05/22 15:26:16;;;;;;;13.00;9.77;;;;;;;;;;5018243;28;20451;-78
2023/05/22 15:31:42;;;;;;;9.50;8.70;;;;;;;;;;5017081;28;20451;-76
2023/05/22 15:34:17;;;;;;;8.13;7.33;;;;;;;;;;5024191;28;20457;-75
2023/05/22 15:37:00;;;;;;;7.37;6.70;;;;;;;;;;5019844;28;20450;-77
2023/05/22 15:39:36;;;;;;;7.67;6.60;;;;;;;;;;5018138;28;20475;-75
2023/05/22 15:45:14;;;;;;;8.10;7.40;;;;;;;;;;4988667;28;20447;-76
2023/05/22 15:47:45;;;;;;;7.27;6.77;;;;;;;;;;5016986;28;20459;-76
2023/05/22 15:50:14;;;;;;;7.13;6.63;;;;;;;;;;5018495;28;20498;-77
2023/05/22 15:56:08;;;;;;;7.83;6.87;;;;;;;;;;4977866;28;20434;-76
2023/05/22 15:58:45;;;;;;;8.20;7.60;;;;;;;;;;4972222;28;20457;-76
2023/05/22 16:01:18;;;;;;;10.73;7.57;;;;;;;;;;5014345;28;20467;-76
2023/05/22 16:03:53;;;;;;;8.70;7.90;;;;;;;;;;5022482;28;21016;-75
2023/05/22 16:06:36;;;;;;;8.97;8.17;;;;;;;;;;5022080;28;20733;-76
2023/05/22 16:09:10;;;;;;;9.20;8.27;;;;;;;;;;5021965;28;20456;-78
2023/05/22 16:12:01;;;;;;;8.10;7.60;;;;;;;;;;5022127;28;20446;-77
2023/05/22 16:14:37;;;;;;;10.50;9.00;;;;;;;;;;5018524;28;20550;-76
2023/05/22 16:17:09;;;;;;;8.23;7.57;;;;;;;;;;5017636;28;21051;-76
2023/05/22 16:19:42;;;;;;;8.53;7.90;;;;;;;;;;5019867;28;20965;-76
2023/05/22 16:22:16;;;;;;;8.00;7.40;;;;;;;;;;5019216;28;20451;-77
2023/05/22 16:24:46;;;;;;;7.73;7.13;;;;;;;;;;5018771;28;20486;-76
2023/05/22 16:27:15;;;;;;;8.00;7.30;;;;;;;;;;5021588;28;20463;-77
2023/05/22 16:29:49;;;;;;;7.50;7.00;;;;;;;;;;5018311;28;20448;-76
2023/05/22 16:32:19;;;;;;;8.20;7.60;;;;;;;;;;5018207;28;21011;-77
2023/05/22 16:35:12;;;;;;;8.27;7.63;;;;;;;;;;5018905;28;20941;-76
2023/05/22 16:37:57;;;;;;;9.00;8.30;;;;;;;;;;5019291;28;20458;-75
2023/05/22 16:40:28;;;;;;;8.37;7.77;;;;;;;;;;5018506;28;20470;-77
2023/05/22 16:43:25;;;;;;;;;;;;;;;;;;;;;
2023/05/22 16:45:54;;;;;;;9.00;8.20;;;;;;;;;;5020972;28;20443;-77
2023/05/22 16:48:45;;;;;;;8.13;7.43;;;;;;;;;;5021294;28;20957;-76
2023/05/22 16:51:23;;;;;;;8.87;8.07;;;;;;;;;;5019841;28;20491;-78
2023/05/22 16:53:56;;;;;;;8.27;7.57;;;;;;;;;;5020871;28;20443;-77
2023/05/22 16:56:25;;;;;;;8.10;7.47;;;;;;;;;;5023524;28;20447;-76
2023/05/22 16:58:52;;;;;;;8.27;7.73;;;;;;;;;;5020370;28;20447;-76
2023/05/22 17:01:20;;;;;;;8.20;7.60;;;;;;;;;;5021899;28;20455;-78
2023/05/22 17:03:47;;;;;;;8.60;7.57;;;;;;;;;;5022340;28;20568;-76
2023/05/22 17:06:15;;;;;;;7.63;7.13;;;;;;;;;;5022080;28;20864;-77
2023/05/22 17:08:42;;;;;;;9.03;7.47;;;;;;;;;;5022351;28;20471;-78
2023/05/22 17:11:09;;;;;;;8.50;7.70;;;;;;;;;;5022053;28;20570;-77
2023/05/22 17:13:38;;;;;;;7.90;7.30;;;;;;;;;;5023560;28;20452;-76
2023/05/22 17:16:05;;;;;;;8.87;7.97;;;;;;;;;;5021075;28;20937;-78
2023/05/22 17:18:32;;;;;;;8.30;7.47;;;;;;;;;;5030260;28;20428;-75
2023/05/22 17:21:00;;;;;;;8.60;7.70;;;;;;;;;;5019790;28;20526;-79
2023/05/22 17:23:27;;;;;;;8.60;7.90;;;;;;;;;;5014535;28;20565;-77
2023/05/22 17:25:54;;;;;;;7.57;6.93;;;;;;;;;;5012137;28;20482;-76
2023/05/22 17:28:22;;;;;;;9.70;8.30;;;;;;;;;;5014159;28;20451;-79
2023/05/22 17:30:51;;;;;;;8.70;8.00;;;;;;;;;;5015088;28;20483;-79
2023/05/22 17:33:20;;;;;;;8.70;7.90;;;;;;;;;;5015274;28;20459;-77
2023/05/22 17:35:48;;;;;;;8.53;7.90;;;;;;;;;;5016588;28;20451;-77
2023/05/22 17:38:16;;;;;;;8.73;8.03;;;;;;;;;;5014905;28;20482;-77
2023/05/22 17:40:44;;;;;;;8.07;7.47;;;;;;;;;;5016974;28;20489;-77
2023/05/22 17:43:12;;;;;;;8.20;7.60;;;;;;;;;;5019894;28;20495;-78
2023/05/22 17:45:40;;;;;;;8.87;8.17;;;;;;;;;;5015627;28;20462;-77
2023/05/22 17:48:11;;;;;;;9.40;8.60;;;;;;;;;;5015928;28;20481;-78
2023/05/22 17:50:38;;;;;;;9.53;8.57;;;;;;;;;;5015857;28;20510;-78
2023/05/22 17:53:06;;;;;;;8.97;8.20;;;;;;;;;;5016532;28;20518;-77
2023/05/22 17:55:34;;;;;;;10.53;9.27;;;;;;;;;;5020831;28;20446;-77
2023/05/22 17:58:02;;;;;;;9.27;8.63;;;;;;;;;;5020679;28;20514;-76
2023/05/22 18:00:31;;;;;;;10.57;9.77;;;;;;;;;;5021613;28;20867;-78
2023/05/22 18:02:59;;;;;;;10.60;9.70;;;;;;;;;;5021011;28;20458;-77
2023/05/22 18:05:29;;;;;;;10.97;10.17;;;;;;;;;;5029167;28;20478;-76
2023/05/22 18:07:57;;;;;;;10.13;9.33;;;;;;;;;;5030093;28;20566;-78
2023/05/22 18:10:25;;;;;;;10.47;9.67;;;;;;;;;;5030806;28;20534;-77
2023/05/22 18:12:53;;;;;;;10.60;9.80;;;;;;;;;;5027678;28;20465;-79
2023/05/22 18:15:20;;;;;;;11.23;10.00;;;;;;;;;;5027195;28;20534;-77
2023/05/22 18:17:48;;;;;;;10.90;10.00;;;;;;;;;;5031223;28;20459;-77
2023/05/22 18:20:16;;;;;;;10.87;9.80;;;;;;;;;;5031919;28;20470;-77
2023/05/22 18:22:46;;;;;;;10.20;9.40;;;;;;;;;;5032385;28;20455;-78
2023/05/22 18:25:14;;;;;;;9.97;9.10;;;;;;;;;;5031584;28;20491;-78
2023/05/22 18:27:42;;;;;;;10.87;9.33;;;;;;;;;;5032289;28;20527;-79
2023/05/22 18:30:10;;;;;;;10.57;9.53;;;;;;;;;;5031462;28;20467;-78
2023/05/22 18:32:38;;;;;;;9.60;8.80;;;;;;;;;;5033962;28;20515;-77
2023/05/22 18:35:06;;;;;;;10.40;9.30;;;;;;;;;;5032692;28;20440;-76
2023/05/22 18:37:35;;;;;;;10.20;9.40;;;;;;;;;;5030641;28;20514;-78
2023/05/22 18:40:08;;;;;;;11.00;10.00;;;;;;;;;;5030790;28;20952;-77